Time;durP1;ratioP1;P1;durP2;ratioP2;P2;SDS_P1;SDS_P2;PMS_P1;PMS_P2;Temp;Humidity;BMP_temperature;BMP_pressure;BME280_temperature;BME280_humidity;BME280_pressure;Samples;Min_cycle;Max_cycle;Signal;HPM_P1;HPM_P2
2022/11/22 00:02:11;;;;;;;30.20;14.27;;;4.20;99.90;;;;;;5111323;28;19920;-74
2022/11/22 00:04:37;;;;;;;;;;;4.20;99.90;;;;;;5090005;28;20040;-74
2022/11/22 00:07:02;;;;;;;30.15;13.13;;;4.40;99.90;;;;;;5111611;28;19972;-74
2022/11/22 00:09:28;;;;;;;29.08;14.27;;;4.20;99.90;;;;;;5110768;28;20447;-74
2022/11/22 00:11:53;;;;;;;;;;;4.30;99.90;;;;;;5112502;28;20032;-74
2022/11/22 00:14:22;;;;;;;32.63;14.80;;;4.30;99.90;;;;;;5112294;28;19923;-74
2022/11/22 00:16:47;;;;;;;30.08;13.68;;;4.20;99.90;;;;;;5110754;28;20051;-74
2022/11/22 00:19:13;;;;;;;;;;;4.20;99.90;;;;;;5093498;28;20112;-74
2022/11/22 00:21:38;;;;;;;29.25;12.65;;;4.20;99.90;;;;;;5093258;28;19920;-73
2022/11/22 00:24:04;;;;;;;;;;;4.10;99.90;;;;;;5111170;28;20478;-74
2022/11/22 00:26:30;;;;;;;25.98;12.38;;;4.10;99.90;;;;;;5111751;28;19953;-73
2022/11/22 00:28:55;;;;;;;;;;;4.10;99.90;;;;;;5112406;28;20032;-74
2022/11/22 00:31:21;;;;;;;27.38;12.57;;;4.20;99.90;;;;;;5111178;28;19930;-74
2022/11/22 00:33:47;;;;;;;;;;;4.10;99.90;;;;;;5093329;28;20841;-73
2022/11/22 00:36:12;;;;;;;25.98;11.60;;;4.10;99.90;;;;;;5112215;28;19922;-74
2022/11/22 00:38:38;;;;;;;;;;;4.10;99.90;;;;;;5110701;28;20119;-73
2022/11/22 00:41:04;;;;;;;26.80;11.38;;;4.10;99.90;;;;;;5111898;28;20001;-74
2022/11/22 00:43:30;;;;;;;;;;;4.20;99.90;;;;;;5111128;28;20032;-74
2022/11/22 00:45:56;;;;;;;24.35;11.07;;;4.20;99.90;;;;;;5096417;28;19920;-74
2022/11/22 00:48:21;;;;;;;;;;;4.20;99.90;;;;;;5116516;28;20032;-73
2022/11/22 00:50:50;;;;;;;23.75;10.85;;;5.70;99.90;;;;;;5114799;28;19924;-73
2022/11/22 00:53:16;;;;;;;20.85;10.55;;;4.20;99.90;;;;;;5097028;28;20520;-74
2022/11/22 00:55:41;;;;;;;;;;;4.20;99.90;;;;;;5115555;28;20040;-74
2022/11/22 00:58:07;;;;;;;23.90;9.98;;;4.20;99.90;;;;;;5092880;28;20405;-73
2022/11/22 01:00:35;;;;;;;;;;;4.20;99.90;;;;;;5094113;28;20048;-74
2022/11/22 01:03:01;;;;;;;20.17;9.18;;;4.20;99.90;;;;;;5093485;28;19920;-74
2022/11/22 01:05:26;;;;;;;;;;;4.20;99.90;;;;;;5093577;28;20199;-74
2022/11/22 01:07:52;;;;;;;19.60;9.43;;;4.20;99.90;;;;;;5093963;28;19945;-73
2022/11/22 01:10:18;;;;;;;;;;;5.80;99.90;;;;;;5094285;28;20403;-74
2022/11/22 01:12:43;;;;;;;18.15;9.48;;;4.30;99.90;;;;;;5092650;28;19920;-74
2022/11/22 01:15:09;;;;;;;;;;;4.30;99.90;;;;;;5095226;28;20043;-74
2022/11/22 01:17:38;;;;;;;17.20;8.70;;;4.20;99.90;;;;;;5094384;28;19927;-74
2022/11/22 01:20:04;;;;;;;16.38;9.05;;;4.40;99.90;;;;;;5094280;28;20460;-74
2022/11/22 01:22:30;;;;;;;19.67;9.38;;;4.20;99.90;;;;;;5094478;28;20036;-74
2022/11/22 01:24:55;;;;;;;;;;;4.20;99.90;;;;;;5093670;28;20036;-73
2022/11/22 01:27:21;;;;;;;19.38;9.48;;;4.50;99.90;;;;;;5092909;28;19919;-74
2022/11/22 01:29:46;;;;;;;;;;;4.20;99.90;;;;;;5093380;28;20040;-73
2022/11/22 01:32:12;;;;;;;19.58;9.32;;;4.20;99.90;;;;;;5094197;28;19923;-73
2022/11/22 01:34:38;;;;;;;;;;;4.20;99.90;;;;;;5093059;28;20048;-73
2022/11/22 01:37:03;;;;;;;20.95;9.85;;;4.20;99.90;;;;;;5094500;28;19975;-74
2022/11/22 01:39:29;;;;;;;;;;;4.20;99.90;;;;;;5093351;28;20043;-73
2022/11/22 01:41:54;;;;;;;18.27;9.38;;;4.20;99.90;;;;;;5093253;28;19920;-74
2022/11/22 01:44:21;;;;;;;;;;;4.20;99.90;;;;;;5093471;28;20395;-73
2022/11/22 01:46:53;;;;;;;18.00;9.32;;;4.30;99.90;;;;;;5092730;28;20375;-73
2022/11/22 01:49:30;;;;;;;20.42;9.27;;;4.30;99.90;;;;;;5093215;28;20078;-73
2022/11/22 01:52:04;;;;;;;19.17;9.02;;;4.30;99.90;;;;;;5093659;28;20397;-73
2022/11/22 01:54:33;;;;;;;19.77;9.30;;;4.30;99.90;;;;;;5092829;28;20051;-73
2022/11/22 01:57:05;;;;;;;19.42;10.02;;;4.30;99.90;;;;;;5093955;28;20548;-73
2022/11/22 01:59:33;;;;;;;19.77;9.60;;;4.30;99.90;;;;;;5095575;28;20048;-73
2022/11/22 02:02:00;;;;;;;15.75;8.30;;;4.20;99.90;;;;;;5113119;28;20086;-73
2022/11/22 02:04:28;;;;;;;18.67;9.00;;;4.30;99.90;;;;;;5114086;28;20050;-73
2022/11/22 02:07:04;;;;;;;19.35;9.57;;;4.30;99.90;;;;;;5095826;28;20044;-73
2022/11/22 02:09:31;;;;;;;13.55;7.90;;;4.40;99.90;;;;;;5095026;28;20118;-73
2022/11/22 02:12:01;;;;;;;17.48;9.63;;;4.40;99.90;;;;;;5095995;28;20047;-73
2022/11/22 02:14:27;;;;;;;18.33;8.80;;;4.40;99.90;;;;;;5095858;28;20100;-73
2022/11/22 02:16:53;;;;;;;17.33;9.13;;;4.40;99.90;;;;;;5092962;28;20047;-73
2022/11/22 02:19:21;;;;;;;;;;;4.40;99.90;;;;;;5114455;28;20035;-73
2022/11/22 02:21:54;;;;;;;12.95;7.63;;;4.50;99.90;;;;;;5113488;28;20197;-73
2022/11/22 02:24:31;;;;;;;16.95;8.77;;;4.40;99.90;;;;;;5110470;28;20035;-73
2022/11/22 02:26:57;;;;;;;16.58;8.82;;;4.40;99.90;;;;;;5109385;28;20039;-73
2022/11/22 02:29:23;;;;;;;;;;;4.40;99.90;;;;;;5108690;28;20443;-73
2022/11/22 02:31:49;;;;;;;15.48;9.38;;;4.70;99.90;;;;;;5094971;28;19941;-73
2022/11/22 02:34:17;;;;;;;;;;;4.40;99.90;;;;;;5113803;28;20132;-73
2022/11/22 02:36:48;;;;;;;18.25;9.88;;;4.40;99.90;;;;;;5089181;28;19928;-73
2022/11/22 02:39:16;;;;;;;17.83;9.25;;;4.30;99.90;;;;;;5086590;28;20047;-73
2022/11/22 02:41:43;;;;;;;15.52;8.65;;;4.40;99.90;;;;;;5110610;28;20028;-73
2022/11/22 02:44:09;;;;;;;18.80;9.43;;;4.40;99.90;;;;;;5094658;28;20130;-73
2022/11/22 02:46:44;;;;;;;18.15;10.35;;;4.40;99.90;;;;;;5094718;28;20063;-73
2022/11/22 02:49:09;;;;;;;19.40;9.73;;;4.40;99.90;;;;;;5095365;28;20040;-73
2022/11/22 02:51:35;;;;;;;;;;;4.40;99.90;;;;;;5094056;28;20043;-74
2022/11/22 02:54:01;;;;;;;18.65;9.10;;;4.50;99.90;;;;;;5112587;28;19978;-73
2022/11/22 02:56:26;;;;;;;;;;;4.50;99.90;;;;;;5113510;28;20039;-73
2022/11/22 02:58:52;;;;;;;23.50;9.60;;;4.80;99.90;;;;;;5111949;28;19919;-73
2022/11/22 03:01:17;;;;;;;;;;;4.50;99.90;;;;;;5094912;28;20051;-73
2022/11/22 03:03:43;;;;;;;18.35;8.85;;;4.50;99.90;;;;;;5094461;28;20267;-73
2022/11/22 03:06:08;;;;;;;;;;;4.60;99.90;;;;;;5112840;28;20455;-73
2022/11/22 03:08:34;;;;;;;16.02;8.60;;;4.60;99.90;;;;;;5093177;28;20011;-73
2022/11/22 03:10:59;;;;;;;;;;;4.60;99.90;;;;;;5112669;28;20035;-73
2022/11/22 03:13:25;;;;;;;18.10;9.73;;;4.60;99.90;;;;;;5111455;28;19927;-73
2022/11/22 03:15:51;;;;;;;;;;;4.60;99.90;;;;;;5112918;28;20036;-73
2022/11/22 03:18:16;;;;;;;16.77;10.38;;;4.60;99.90;;;;;;5112217;28;19927;-73
2022/11/22 03:20:42;;;;;;;;;;;4.60;99.90;;;;;;5094599;28;20475;-73
2022/11/22 03:23:10;;;;;;;17.90;9.93;;;4.60;99.90;;;;;;5112760;28;19924;-73
2022/11/22 03:25:39;;;;;;;17.30;10.10;;;4.50;99.90;;;;;;5093453;28;20472;-73
2022/11/22 03:28:05;;;;;;;;;;;4.60;99.90;;;;;;5112684;28;20083;-73
2022/11/22 03:30:31;;;;;;;17.95;10.10;;;4.60;99.90;;;;;;5111877;28;20364;-73
2022/11/22 03:32:56;;;;;;;;;;;4.60;99.90;;;;;;5094345;28;20116;-73
2022/11/22 03:35:22;;;;;;;17.10;9.65;;;4.70;99.90;;;;;;5112659;28;19919;-72
2022/11/22 03:37:47;;;;;;;;;;;4.70;99.90;;;;;;5094293;28;20055;-72
2022/11/22 03:40:13;;;;;;;17.40;10.07;;;4.60;99.90;;;;;;5111642;28;20039;-72
2022/11/22 03:42:38;;;;;;;;;;;4.60;99.90;;;;;;5093917;28;20046;-72
2022/11/22 03:45:05;;;;;;;17.10;9.65;;;4.60;99.90;;;;;;5094257;28;19930;-73
2022/11/22 03:47:31;;;;;;;17.40;9.85;;;4.60;99.90;;;;;;5111429;28;20393;-73
2022/11/22 03:49:56;;;;;;;;;;;4.60;99.90;;;;;;5094373;28;20043;-73
2022/11/22 03:52:22;;;;;;;17.63;10.27;;;5.20;99.90;;;;;;5094122;28;20411;-73
2022/11/22 03:54:47;;;;;;;;;;;4.60;99.90;;;;;;5093189;28;20130;-73
2022/11/22 03:57:15;;;;;;;16.15;9.63;;;4.60;99.90;;;;;;5112001;28;19926;-73
2022/11/22 03:59:41;;;;;;;18.50;10.60;;;4.70;99.90;;;;;;5093742;28;20471;-73
2022/11/22 04:02:06;;;;;;;;;;;4.60;99.90;;;;;;5094169;28;20119;-72
2022/11/22 04:04:32;;;;;;;21.80;10.68;;;4.60;99.90;;;;;;5114835;28;19945;-72
2022/11/22 04:06:58;;;;;;;;;;;4.60;99.90;;;;;;5116356;28;20046;-72
2022/11/22 04:09:23;;;;;;;21.20;10.27;;;4.60;99.90;;;;;;5114039;28;20006;-72
2022/11/22 04:11:49;;;;;;;;;;;4.60;99.90;;;;;;5111821;28;20424;-73
2022/11/22 04:16:58;;;;;;;17.65;9.57;;;4.60;99.90;;;;;;5110379;28;20054;-73
2022/11/22 04:19:24;;;;;;;;;;;4.80;99.90;;;;;;5113632;28;20394;-72
2022/11/22 04:21:49;;;;;;;22.10;10.68;;;4.70;99.90;;;;;;5114934;28;19920;-73
2022/11/22 04:26:59;;;;;;;19.33;10.25;;;4.70;99.90;;;;;;5114843;28;19920;-73
2022/11/22 04:29:25;;;;;;;;;;;4.70;99.90;;;;;;5097544;28;20577;-73
2022/11/22 04:34:36;;;;;;;20.50;10.50;;;4.80;99.90;;;;;;5115763;28;20035;-74
2022/11/22 04:37:03;;;;;;;22.30;11.15;;;4.80;99.90;;;;;;5114993;28;20032;-73
2022/11/22 04:39:28;;;;;;;19.98;10.75;;;4.70;99.90;;;;;;5115225;28;20046;-73
2022/11/22 04:44:40;;;;;;;16.45;9.85;;;4.70;99.90;;;;;;5110986;28;19924;-73
2022/11/22 04:47:10;;;;;;;18.88;10.70;;;4.80;99.90;;;;;;5116041;28;20380;-73
2022/11/22 04:49:39;;;;;;;19.63;10.73;;;4.80;99.90;;;;;;5098510;28;20479;-73
2022/11/22 04:54:49;;;;;;;20.15;11.20;;;4.90;99.90;;;;;;5098378;28;20043;-73
2022/11/22 04:57:14;;;;;;;;;;;4.90;99.90;;;;;;5098421;28;20044;-73
2022/11/22 04:59:40;;;;;;;18.08;10.77;;;5.00;99.90;;;;;;5096738;28;20002;-73
2022/11/22 05:02:05;;;;;;;;;;;5.10;99.90;;;;;;5116033;28;20126;-73
2022/11/22 05:04:31;;;;;;;19.15;10.93;;;5.10;99.90;;;;;;5114407;28;19926;-73
2022/11/22 05:06:59;;;;;;;;;;;5.00;99.90;;;;;;5097605;28;20096;-73
2022/11/22 05:09:25;;;;;;;17.75;10.60;;;5.00;99.90;;;;;;5096924;28;19928;-73
2022/11/22 05:11:52;;;;;;;;;;;4.90;99.90;;;;;;5114896;28;20032;-73
2022/11/22 05:14:18;;;;;;;20.13;10.65;;;5.00;99.90;;;;;;5115085;28;20369;-73
2022/11/22 05:16:43;;;;;;;;;;;5.00;99.90;;;;;;5115252;28;20032;-73
2022/11/22 05:19:09;;;;;;;17.95;10.80;;;5.00;99.90;;;;;;5095794;28;19927;-73
2022/11/22 05:21:36;;;;;;;;;;;5.00;99.90;;;;;;5115385;28;20038;-73
2022/11/22 05:24:02;;;;;;;17.65;10.77;;;5.10;99.90;;;;;;5092782;28;20275;-73
2022/11/22 05:26:29;;;;;;;;;;;5.00;99.90;;;;;;5095084;28;20043;-72
2022/11/22 05:28:57;;;;;;;17.77;9.82;;;5.00;99.90;;;;;;5097031;28;20394;-72
2022/11/22 05:31:24;;;;;;;15.52;9.57;;;5.10;99.90;;;;;;5112945;28;20054;-72
2022/11/22 05:33:51;;;;;;;18.42;10.90;;;5.10;99.90;;;;;;5095628;28;20470;-72
2022/11/22 05:36:17;;;;;;;24.83;10.98;;;5.10;99.90;;;;;;5096498;28;20043;-73
2022/11/22 05:38:43;;;;;;;22.48;11.20;;;5.20;99.90;;;;;;5096068;28;20051;-73
2022/11/22 05:41:10;;;;;;;;;;;5.10;99.90;;;;;;5114278;28;20428;-72
2022/11/22 05:43:36;;;;;;;16.00;9.75;;;5.20;99.90;;;;;;5096288;28;20023;-72
2022/11/22 05:46:09;;;;;;;19.75;10.55;;;5.10;99.90;;;;;;5095260;28;20040;-72
2022/11/22 05:48:36;;;;;;;16.90;10.77;;;5.10;99.90;;;;;;5096370;28;20035;-73
2022/11/22 05:51:06;;;;;;;16.42;10.35;;;5.80;99.90;;;;;;5113941;28;20036;-73
2022/11/22 05:53:31;;;;;;;18.58;10.63;;;5.80;99.90;;;;;;5102163;28;20040;-73
2022/11/22 05:55:57;;;;;;;;;;;5.30;99.90;;;;;;5095168;28;20570;-72
2022/11/22 05:58:23;;;;;;;18.77;10.68;;;5.30;99.90;;;;;;5113063;28;19919;-80
2022/11/22 06:00:48;;;;;;;;;;;5.20;99.90;;;;;;5095267;28;20044;-79
2022/11/22 06:03:14;;;;;;;20.20;9.88;;;5.20;99.90;;;;;;5095540;28;19975;-82
2022/11/22 06:05:39;;;;;;;;;;;6.40;99.90;;;;;;5113712;28;20456;-76
2022/11/22 06:08:05;;;;;;;15.90;9.30;;;5.20;99.90;;;;;;5094764;28;20596;-77
2022/11/22 06:10:33;;;;;;;;;;;5.10;99.90;;;;;;5114065;28;20035;-79
2022/11/22 06:12:58;;;;;;;21.08;10.38;;;4.90;99.90;;;;;;5109892;28;20004;-77
2022/11/22 06:15:24;;;;;;;;;;;5.00;99.90;;;;;;5108566;28;20062;-73
2022/11/22 06:17:49;;;;;;;19.10;10.10;;;4.90;99.90;;;;;;5108137;28;19920;-72
2022/11/22 06:20:15;;;;;;;;;;;4.80;99.90;;;;;;5089249;28;20050;-76
2022/11/22 06:22:40;;;;;;;17.17;9.38;;;4.70;99.90;;;;;;5110424;28;20293;-74
2022/11/22 06:25:06;;;;;;;;;;;4.60;99.90;;;;;;5092334;28;20084;-73
2022/11/22 06:27:32;;;;;;;17.58;8.75;;;4.50;99.90;;;;;;5088941;28;19964;-81
2022/11/22 06:29:57;;;;;;;;;;;5.30;99.90;;;;;;5111833;28;20138;-72
2022/11/22 06:32:23;;;;;;;20.13;8.95;;;4.50;99.90;;;;;;5112025;28;19920;-77
2022/11/22 06:34:52;;;;;;;16.67;8.52;;;4.50;99.90;;;;;;5083800;28;20048;-75
2022/11/22 06:37:17;;;;;;;;;;;4.70;99.90;;;;;;5081879;28;20044;-75
2022/11/22 06:39:43;;;;;;;16.52;8.88;;;4.50;99.90;;;;;;5105395;28;20027;-74
2022/11/22 06:42:11;;;;;;;17.75;8.25;;;4.40;99.90;;;;;;5083031;28;20044;-75
2022/11/22 06:44:37;;;;;;;;;;;4.40;99.90;;;;;;5112738;28;20526;-71
2022/11/22 06:47:02;;;;;;;15.43;8.10;;;4.40;99.90;;;;;;5108959;28;19924;-76
2022/11/22 06:49:28;;;;;;;;;;;4.40;99.90;;;;;;5107587;28;20042;-73
2022/11/22 06:51:53;;;;;;;16.52;8.30;;;4.30;99.90;;;;;;5109008;28;19926;-73
2022/11/22 06:54:19;;;;;;;;;;;4.40;99.90;;;;;;5113226;28;20048;-74
2022/11/22 06:56:45;;;;;;;13.75;7.93;;;4.40;99.90;;;;;;5107941;28;20011;-72
2022/11/22 06:59:10;;;;;;;;;;;4.30;99.90;;;;;;5091751;28;20063;-73
2022/11/22 07:01:37;;;;;;;16.42;7.40;;;4.30;99.90;;;;;;5091263;28;19926;-73
2022/11/22 07:04:03;;;;;;;13.73;7.85;;;4.20;99.90;;;;;;5090341;28;20407;-74
2022/11/22 07:06:31;;;;;;;14.43;7.32;;;4.20;99.90;;;;;;5092364;28;20039;-73
2022/11/22 07:08:58;;;;;;;12.85;7.05;;;4.30;99.90;;;;;;5092416;28;20111;-74
2022/11/22 07:11:26;;;;;;;15.43;7.30;;;4.40;99.90;;;;;;5086260;28;20051;-73
2022/11/22 07:13:54;;;;;;;16.70;7.75;;;4.50;99.90;;;;;;5091690;28;20507;-74
2022/11/22 07:16:20;;;;;;;18.38;6.68;;;5.30;99.90;;;;;;5091350;28;20047;-73
2022/11/22 07:18:47;;;;;;;12.73;5.93;;;4.50;99.90;;;;;;5088955;28;20040;-73
2022/11/22 07:21:15;;;;;;;18.85;7.00;;;4.60;99.90;;;;;;5087950;28;20118;-78
2022/11/22 07:23:45;;;;;;;17.45;6.97;;;4.70;99.90;;;;;;5087395;28;20028;-81
2022/11/22 07:26:12;;;;;;;15.32;6.25;;;4.60;99.90;;;;;;5090359;28;20426;-78
2022/11/22 07:28:38;;;;;;;14.35;5.63;;;5.10;99.90;;;;;;5080741;28;20100;-78
2022/11/22 07:31:04;;;;;;;;;;;4.90;99.90;;;;;;5092410;28;20043;-79
2022/11/22 07:33:30;;;;;;;12.67;5.97;;;4.70;99.90;;;;;;5090432;28;19920;-75
2022/11/22 07:36:02;;;;;;;;;;;4.80;99.90;;;;;;5089215;28;20275;-73
2022/11/22 07:38:27;;;;;;;10.63;5.22;;;4.90;99.90;;;;;;5091765;28;19978;-70
2022/11/22 07:40:53;;;;;;;;;;;4.90;99.90;;;;;;5086824;28;20048;-75
2022/11/22 07:43:19;;;;;;;16.27;5.57;;;5.60;99.90;;;;;;5091225;28;19927;-74
2022/11/22 07:45:44;;;;;;;;;;;4.90;99.90;;;;;;5091254;28;20051;-80
2022/11/22 07:48:13;;;;;;;13.80;5.00;;;4.70;99.90;;;;;;5092396;28;19927;-81
2022/11/22 07:50:39;;;;;;;8.50;4.32;;;4.80;99.90;;;;;;5088160;28;20032;-81
2022/11/22 07:53:05;;;;;;;;;;;4.80;99.90;;;;;;5091875;28;20036;-81
2022/11/22 07:55:33;;;;;;;11.18;5.22;;;4.80;99.90;;;;;;5091143;28;20398;-82
2022/11/22 07:58:00;;;;;;;11.77;5.10;;;4.80;99.90;;;;;;5090458;28;20058;-81
2022/11/22 08:00:27;;;;;;;11.88;4.22;;;4.80;99.90;;;;;;5090123;28;20051;-81
2022/11/22 08:02:53;;;;;;;9.75;4.70;;;4.90;99.90;;;;;;5091894;28;20043;-82
2022/11/22 08:05:19;;;;;;;8.32;4.22;;;4.80;99.90;;;;;;5090926;28;20044;-81
2022/11/22 08:07:48;;;;;;;;;;;4.80;99.90;;;;;;5091033;28;20036;-81
2022/11/22 08:10:14;;;;;;;7.75;4.43;;;4.90;99.90;;;;;;5091171;28;20005;-82
2022/11/22 08:12:39;;;;;;;;;;;5.00;99.90;;;;;;5090492;28;20067;-83
2022/11/22 08:15:06;;;;;;;11.07;4.45;;;5.00;99.90;;;;;;5090161;28;19927;-81
2022/11/22 08:17:31;;;;;;;12.77;5.22;;;5.00;99.90;;;;;;5091322;28;20612;-78
2022/11/22 08:19:57;;;;;;;;;;;5.10;99.90;;;;;;5091513;28;20068;-80
2022/11/22 08:22:22;;;;;;;8.80;3.80;;;6.20;99.90;;;;;;5089592;28;20000;-80
2022/11/22 08:24:48;;;;;;;;;;;5.30;99.90;;;;;;5081632;28;20128;-84
2022/11/22 08:27:14;;;;;;;8.45;4.35;;;5.20;99.90;;;;;;5092259;28;20398;-81
2022/11/22 08:29:39;;;;;;;;;;;5.30;99.90;;;;;;5087023;28;20125;-81
2022/11/22 08:32:05;;;;;;;9.82;3.38;;;5.40;99.90;;;;;;5092067;28;19919;-76
2022/11/22 08:34:30;;;;;;;;;;;5.30;99.90;;;;;;5090622;28;20055;-81
2022/11/22 08:36:56;;;;;;;15.68;4.85;;;5.50;99.90;;;;;;5091164;28;20696;-77
2022/11/22 08:39:21;;;;;;;;;;;5.40;99.90;;;;;;5087641;28;20135;-77
2022/11/22 08:41:47;;;;;;;6.63;3.22;;;5.30;99.90;;;;;;5090682;28;20030;-74
2022/11/22 08:44:13;;;;;;;;;;;5.40;99.90;;;;;;5088647;28;20089;-82
2022/11/22 08:46:38;;;;;;;10.70;4.80;;;5.40;99.90;;;;;;5087563;28;19979;-77
2022/11/22 08:49:05;;;;;;;;;;;5.40;99.90;;;;;;5090157;28;20117;-78
2022/11/22 08:51:32;;;;;;;7.93;3.27;;;5.40;99.90;;;;;;5084738;28;19920;-73
2022/11/22 08:53:58;;;;;;;10.30;3.88;;;5.50;99.90;;;;;;5081377;28;20032;-72
2022/11/22 08:56:23;;;;;;;;;;;5.50;99.90;;;;;;5086494;28;20089;-72
2022/11/22 08:58:49;;;;;;;7.25;3.28;;;5.50;99.90;;;;;;5105273;28;19920;-75
2022/11/22 09:01:15;;;;;;;;;;;5.50;99.90;;;;;;5112036;28;20040;-74
2022/11/22 09:03:42;;;;;;;7.43;3.30;;;5.50;99.90;;;;;;5110407;28;19934;-74
2022/11/22 09:06:10;;;;;;;12.93;4.20;;;5.60;99.90;;;;;;5114088;28;20058;-74
2022/11/22 09:08:45;;;;;;;6.60;3.03;;;5.60;99.90;;;;;;5096576;28;20047;-75
2022/11/22 09:11:15;;;;;;;7.93;3.45;;;5.50;99.90;;;;;;5096335;28;20052;-74
2022/11/22 09:13:41;;;;;;;8.20;3.75;;;5.50;99.90;;;;;;5114452;28;20114;-73
2022/11/22 09:16:12;;;;;;;;;;;5.60;99.90;;;;;;5097823;28;20051;-76
2022/11/22 09:18:40;;;;;;;10.13;3.40;;;5.60;99.90;;;;;;5113720;28;20004;-74
2022/11/22 09:21:07;;;;;;;;;;;6.70;99.90;;;;;;5115725;28;20050;-70
2022/11/22 09:23:33;;;;;;;5.22;3.20;;;5.50;99.90;;;;;;5096001;28;19920;-71
2022/11/22 09:26:03;;;;;;;9.18;3.38;;;5.60;99.90;;;;;;5096303;28;20368;-71
2022/11/22 09:28:32;;;;;;;12.43;4.20;;;5.70;99.90;;;;;;5113907;28;20040;-72
2022/11/22 09:31:07;;;;;;;8.25;3.42;;;5.70;99.90;;;;;;5096862;28;20091;-71
2022/11/22 09:33:35;;;;;;;12.60;3.50;;;5.60;99.90;;;;;;5096297;28;20035;-74
2022/11/22 09:36:07;;;;;;;7.18;3.22;;;5.80;99.90;;;;;;5115026;28;20100;-71
2022/11/22 09:38:33;;;;;;;5.07;3.03;;;5.80;99.90;;;;;;5113075;28;20031;-72
2022/11/22 09:41:03;;;;;;;8.60;3.17;;;5.80;99.90;;;;;;5096746;28;20479;-73
2022/11/22 09:44:05;;;;;;;7.50;3.15;;;5.70;99.90;;;;;;5113091;28;20072;-74
2022/11/22 09:46:45;;;;;;;6.35;3.05;;;5.70;99.90;;;;;;5084614;28;20040;-74
2022/11/22 09:49:29;;;;;;;6.55;2.60;;;5.80;99.90;;;;;;5096486;28;20048;-72
2022/11/22 09:52:12;;;;;;;7.30;3.08;;;5.90;99.90;;;;;;5089061;28;20040;-71
2022/11/22 09:54:51;;;;;;;4.53;2.40;;;5.80;99.90;;;;;;5087302;28;20136;-76
2022/11/22 09:57:29;;;;;;;6.25;2.95;;;6.20;99.90;;;;;;5081384;28;20035;-79
2022/11/22 10:00:28;;;;;;;6.82;2.75;;;5.80;99.90;;;;;;5106139;28;20509;-77
2022/11/22 10:03:04;;;;;;;7.57;3.40;;;5.80;99.90;;;;;;5077569;28;20067;-77
2022/11/22 10:05:37;;;;;;;9.43;3.17;;;5.90;99.90;;;;;;5086473;28;20062;-77
2022/11/22 10:08:18;;;;;;;5.43;2.70;;;5.90;99.90;;;;;;5099540;28;20024;-83
2022/11/22 10:10:44;;;;;;;8.57;2.83;;;5.90;99.90;;;;;;5090291;28;20043;-78
2022/11/22 10:13:18;;;;;;;;;;;5.90;99.90;;;;;;5113203;28;20049;-77
2022/11/22 10:16:09;;;;;;;8.93;3.10;;;5.90;99.90;;;;;;5109393;28;20341;-76
2022/11/22 10:19:04;;;;;;;8.15;2.90;;;5.90;99.90;;;;;;5112183;28;20062;-76
2022/11/22 10:21:30;;;;;;;7.78;2.75;;;6.00;99.90;;;;;;5106653;28;20042;-75
2022/11/22 10:23:55;;;;;;;;;;;6.00;99.90;;;;;;5090260;28;20042;-71
2022/11/22 10:26:25;;;;;;;6.85;2.58;;;6.00;99.90;;;;;;5090544;28;19919;-74
2022/11/22 10:29:22;;;;;;;8.68;2.50;;;6.10;99.90;;;;;;5085358;28;20035;-75
2022/11/22 10:31:59;;;;;;;6.65;2.70;;;6.10;99.90;;;;;;5075076;28;20051;-75
2022/11/22 10:34:34;;;;;;;;;;;6.20;99.90;;;;;;5086924;28;20040;-73
2022/11/22 10:37:21;;;;;;;7.13;2.85;;;6.20;99.90;;;;;;5086668;28;19930;-73
2022/11/22 10:40:07;;;;;;;6.78;2.75;;;6.20;99.90;;;;;;5102597;28;20065;-73
2022/11/22 10:43:01;;;;;;;6.63;2.45;;;6.20;99.90;;;;;;5076450;28;20495;-74
2022/11/22 10:45:41;;;;;;;7.57;2.90;;;6.20;99.90;;;;;;5111307;28;20503;-74
2022/11/22 10:48:09;;;;;;;6.63;2.85;;;6.20;99.90;;;;;;5094277;28;20043;-74
2022/11/22 10:50:41;;;;;;;5.88;3.10;;;6.20;99.90;;;;;;5112066;28;20633;-73
2022/11/22 10:53:35;;;;;;;7.03;2.55;;;6.20;99.90;;;;;;5102071;28;20408;-74
2022/11/22 10:56:29;;;;;;;6.70;2.88;;;6.20;99.90;;;;;;5110677;28;20050;-74
2022/11/22 10:59:25;;;;;;;7.80;2.83;;;6.20;99.90;;;;;;5070621;28;20048;-71
2022/11/22 11:02:10;;;;;;;5.25;2.83;;;6.30;99.90;;;;;;5077414;28;20119;-70
2022/11/22 11:04:38;;;;;;;7.13;2.50;;;6.30;99.90;;;;;;5086283;28;20059;-71
2022/11/22 11:07:15;;;;;;;9.60;3.20;;;6.30;99.90;;;;;;5081768;28;20130;-72
2022/11/22 11:10:17;;;;;;;7.72;3.10;;;6.10;99.90;;;;;;5083366;28;20063;-71
2022/11/22 11:12:54;;;;;;;4.57;2.25;;;6.20;99.90;;;;;;5075751;28;20043;-72
2022/11/22 11:15:23;;;;;;;6.97;2.95;;;6.20;99.90;;;;;;5089397;28;20107;-72
2022/11/22 11:17:54;;;;;;;7.28;2.70;;;6.20;99.90;;;;;;5088150;28;20039;-71
2022/11/22 11:20:26;;;;;;;8.82;2.80;;;6.30;99.90;;;;;;5091239;28;20118;-70
2022/11/22 11:22:52;;;;;;;6.10;2.28;;;6.40;99.90;;;;;;5089428;28;20044;-71
2022/11/22 11:25:32;;;;;;;;;;;6.40;99.90;;;;;;5089373;28;20059;-71
2022/11/22 11:28:05;;;;;;;5.65;2.50;;;6.50;99.90;;;;;;5090333;28;19923;-72
2022/11/22 11:30:45;;;;;;;;;;;6.40;99.90;;;;;;5086658;28;20076;-75
2022/11/22 11:33:38;;;;;;;6.82;2.78;;;6.50;99.90;;;;;;5086515;28;19927;-75
2022/11/22 11:36:12;;;;;;;9.50;3.13;;;6.50;99.90;;;;;;5081612;28;20047;-75
2022/11/22 11:38:43;;;;;;;6.55;2.95;;;6.50;99.90;;;;;;5081556;28;20387;-72
2022/11/22 11:41:29;;;;;;;5.60;2.50;;;7.10;99.90;;;;;;5082264;28;20098;-75
2022/11/22 11:44:00;;;;;;;4.47;2.53;;;6.50;99.90;;;;;;5089540;28;20036;-74
2022/11/22 11:46:28;;;;;;;8.65;2.67;;;6.70;99.90;;;;;;5088049;28;20055;-74
2022/11/22 11:49:07;;;;;;;9.38;2.30;;;6.60;99.90;;;;;;5088771;28;20060;-73
2022/11/22 11:51:42;;;;;;;5.95;2.60;;;6.60;99.90;;;;;;5085711;28;20032;-72
2022/11/22 11:54:34;;;;;;;6.70;2.20;;;6.70;99.90;;;;;;5088090;28;20036;-73
2022/11/22 11:57:03;;;;;;;5.93;2.38;;;6.70;99.90;;;;;;5084764;28;20548;-71
2022/11/22 11:59:38;;;;;;;4.38;2.50;;;7.10;99.90;;;;;;5086601;28;20056;-73
2022/11/22 12:02:23;;;;;;;5.47;2.15;;;6.80;99.90;;;;;;5088857;28;20048;-72
2022/11/22 12:04:59;;;;;;;5.82;2.35;;;6.90;99.90;;;;;;5088976;28;20056;-72
2022/11/22 12:07:34;;;;;;;5.68;2.25;;;6.90;99.90;;;;;;5084849;28;20056;-73
2022/11/22 12:10:02;;;;;;;8.32;2.30;;;7.30;99.90;;;;;;5082110;28;20109;-73
2022/11/22 12:12:37;;;;;;;7.40;2.45;;;6.80;99.90;;;;;;5089648;28;20123;-73
2022/11/22 12:15:21;;;;;;;5.85;2.15;;;6.70;99.90;;;;;;5088575;28;20052;-73
2022/11/22 12:18:19;;;;;;;7.30;2.20;;;6.90;99.90;;;;;;5091369;28;20074;-72
2022/11/22 12:21:10;;;;;;;6.55;2.50;;;6.90;99.90;;;;;;5056058;28;20063;-72
2022/11/22 12:24:03;;;;;;;5.97;2.40;;;6.90;99.90;;;;;;5088990;28;20044;-72
2022/11/22 12:26:29;;;;;;;5.18;2.17;;;7.00;99.90;;;;;;5086929;28;20044;-72
2022/11/22 12:28:55;;;;;;;;;;;7.10;99.90;;;;;;5091136;28;20035;-72
2022/11/22 12:31:40;;;;;;;6.55;2.40;;;7.00;99.90;;;;;;5085643;28;20428;-72
2022/11/22 12:34:28;;;;;;;4.75;2.00;;;7.10;99.90;;;;;;5087193;28;20055;-72
2022/11/22 12:37:12;;;;;;;6.28;2.20;;;7.10;99.90;;;;;;5076072;28;20046;-72
2022/11/22 12:39:42;;;;;;;4.93;2.10;;;7.10;99.90;;;;;;5089587;28;20076;-72
2022/11/22 12:42:15;;;;;;;4.63;2.10;;;7.20;99.90;;;;;;5093215;28;20390;-72
2022/11/22 12:44:52;;;;;;;4.45;2.17;;;7.10;99.90;;;;;;5093239;28;20040;-70
2022/11/22 12:47:21;;;;;;;;;;;7.10;99.90;;;;;;5093158;28;20068;-70
2022/11/22 12:50:12;;;;;;;8.43;2.90;;;7.10;99.90;;;;;;5093725;28;19966;-70
2022/11/22 12:52:44;;;;;;;4.75;2.00;;;7.20;99.90;;;;;;5092394;28;20067;-71
2022/11/22 12:55:25;;;;;;;8.02;2.00;;;7.20;99.90;;;;;;5094193;28;20077;-70
2022/11/22 12:58:22;;;;;;;3.90;1.92;;;7.40;99.90;;;;;;5096642;28;20059;-71
2022/11/22 13:01:09;;;;;;;6.32;2.05;;;7.40;99.90;;;;;;5110633;28;20055;-70
2022/11/22 13:03:43;;;;;;;5.38;2.30;;;7.50;99.90;;;;;;5092723;28;20050;-71
2022/11/22 13:06:13;;;;;;;4.57;2.20;;;7.80;99.90;;;;;;5112994;28;20027;-70
2022/11/22 13:09:02;;;;;;;5.35;1.92;;;7.60;99.90;;;;;;5112975;28;20131;-70
2022/11/22 13:11:41;;;;;;;6.70;2.15;;;7.60;99.90;;;;;;5098638;28;20039;-70
2022/11/22 13:14:15;;;;;;;4.22;1.92;;;7.50;99.90;;;;;;5095512;28;20044;-70
2022/11/22 13:16:41;;;;;;;5.00;1.85;;;7.80;99.90;;;;;;5094126;28;20039;-71
2022/11/22 13:19:11;;;;;;;;;;;7.70;99.90;;;;;;5096948;28;20516;-70
2022/11/22 13:22:08;;;;;;;3.50;1.38;;;7.70;99.90;;;;;;5096239;28;19927;-70
2022/11/22 13:24:46;;;;;;;3.87;1.70;;;7.50;99.90;;;;;;5113161;28;20044;-70
2022/11/22 13:27:17;;;;;;;5.70;1.73;;;7.50;99.90;;;;;;5092565;28;20047;-70
2022/11/22 13:29:44;;;;;;;3.88;1.63;;;7.60;99.90;;;;;;5110523;28;20119;-70
2022/11/22 13:32:12;;;;;;;6.15;1.60;;;7.50;99.90;;;;;;5095975;28;20437;-71
2022/11/22 13:35:04;;;;;;;5.82;1.85;;;7.50;99.90;;;;;;5095751;28;20048;-71
2022/11/22 13:37:37;;;;;;;6.60;1.70;;;7.30;99.90;;;;;;5094429;28;20812;-71
2022/11/22 13:40:29;;;;;;;4.55;1.70;;;7.40;99.90;;;;;;5115103;28;20054;-71
2022/11/22 13:43:31;;;;;;;4.70;1.67;;;7.50;99.90;;;;;;5094359;28;20047;-71
2022/11/22 13:46:03;;;;;;;6.75;1.83;;;7.30;99.90;;;;;;5112246;28;20089;-70